Time;durP1;ratioP1;P1;durP2;ratioP2;P2;SDS_P1;SDS_P2;PMS_P1;PMS_P2;Temp;Humidity;BMP_temperature;BMP_pressure;BME280_temperature;BME280_humidity;BME280_pressure;Samples;Min_cycle;Max_cycle;Signal;HPM_P1;HPM_P2
2022/07/27 00:00:38;;;;;;;1.60;1.50;;;23.50;26.40;;;;;;10462224;28;20289;-70
2022/07/27 00:05:42;;;;;;;1.37;1.27;;;23.30;26.40;;;;;;10458013;28;20235;-70
2022/07/27 00:10:45;;;;;;;1.30;1.20;;;23.10;26.90;;;;;;10460916;28;20221;-70
2022/07/27 00:15:49;;;;;;;1.70;1.60;;;23.00;26.80;;;;;;10459442;28;20232;-70
2022/07/27 00:20:54;;;;;;;3.07;1.87;;;22.90;26.80;;;;;;10471127;28;20311;-78
2022/07/27 00:25:57;;;;;;;2.07;1.50;;;22.80;27.20;;;;;;10478204;28;20235;-77
2022/07/27 00:31:00;;;;;;;1.17;1.00;;;22.80;26.80;;;;;;10479159;28;20216;-77
2022/07/27 00:36:06;;;;;;;1.50;1.40;;;22.80;27.00;;;;;;10485699;28;20701;-77
2022/07/27 00:41:10;;;;;;;1.33;1.23;;;22.80;27.20;;;;;;10488372;28;20574;-78
2022/07/27 00:46:13;;;;;;;1.40;1.30;;;22.80;27.20;;;;;;10487349;28;20228;-78
2022/07/27 00:51:19;;;;;;;1.50;1.40;;;22.80;27.20;;;;;;10484915;28;20224;-78
2022/07/27 00:56:23;;;;;;;2.07;1.40;;;22.80;27.20;;;;;;10493549;28;20614;-78
2022/07/27 01:01:26;;;;;;;1.67;1.53;;;22.70;27.10;;;;;;10492916;28;20524;-78
2022/07/27 01:06:31;;;;;;;1.40;1.30;;;22.70;27.10;;;;;;10492965;28;20228;-77
2022/07/27 01:11:35;;;;;;;3.43;1.50;;;22.50;27.30;;;;;;10483180;28;20638;-78
2022/07/27 01:16:38;;;;;;;1.87;1.20;;;22.40;27.10;;;;;;10488582;28;20232;-78
2022/07/27 01:21:42;;;;;;;1.73;1.60;;;22.30;26.90;;;;;;10489912;28;20227;-77
2022/07/27 01:26:46;;;;;;;2.13;1.23;;;22.20;27.60;;;;;;10488855;28;20232;-77
2022/07/27 01:31:49;;;;;;;2.43;1.63;;;22.20;27.50;;;;;;10487126;28;20724;-77
2022/07/27 01:36:54;;;;;;;2.47;1.43;;;22.10;27.70;;;;;;10492447;28;20296;-78
2022/07/27 01:41:58;;;;;;;1.30;1.20;;;21.90;28.00;;;;;;10487849;28;20242;-77
2022/07/27 01:47:01;;;;;;;2.73;1.43;;;21.90;28.10;;;;;;10491877;28;20685;-76
2022/07/27 01:52:17;;;;;;;1.63;1.50;;;21.80;28.10;;;;;;10488978;28;20216;-78
2022/07/27 01:57:20;;;;;;;1.43;1.30;;;21.80;28.30;;;;;;10485183;28;20239;-77
2022/07/27 02:02:24;;;;;;;2.00;1.67;;;21.80;27.90;;;;;;10485268;28;20231;-78
2022/07/27 02:07:28;;;;;;;1.90;1.30;;;21.80;28.20;;;;;;10484068;28;20229;-78
2022/07/27 02:12:37;;;;;;;2.80;1.70;;;21.80;28.70;;;;;;10489477;28;20693;-78
2022/07/27 02:17:41;;;;;;;2.07;1.60;;;21.70;28.50;;;;;;10489178;28;20228;-77
2022/07/27 02:22:47;;;;;;;1.43;1.33;;;21.60;28.90;;;;;;10485953;28;20736;-78
2022/07/27 02:27:50;;;;;;;1.87;1.37;;;21.50;29.40;;;;;;10485187;28;20250;-77
2022/07/27 02:32:53;;;;;;;1.40;1.30;;;21.50;29.10;;;;;;10487100;28;20234;-78
2022/07/27 02:37:58;;;;;;;1.40;1.30;;;21.50;29.30;;;;;;10484531;28;20236;-78
2022/07/27 02:43:01;;;;;;;1.70;1.60;;;21.50;29.50;;;;;;10485497;28;20312;-77
2022/07/27 02:48:04;;;;;;;1.50;1.40;;;21.50;29.30;;;;;;10488589;28;20217;-78
2022/07/27 02:53:11;;;;;;;2.93;1.60;;;21.50;29.30;;;;;;10486878;28;20243;-78
2022/07/27 02:58:15;;;;;;;1.80;1.70;;;21.60;29.80;;;;;;10486315;28;20227;-78
2022/07/27 03:03:18;;;;;;;3.00;1.60;;;21.50;29.60;;;;;;10483942;28;20220;-78
2022/07/27 03:08:22;;;;;;;1.70;1.60;;;21.50;29.70;;;;;;10487999;28;20244;-78
2022/07/27 03:13:27;;;;;;;1.77;1.50;;;21.40;30.40;;;;;;10484937;28;20220;-78
2022/07/27 03:18:30;;;;;;;1.50;1.40;;;21.30;30.00;;;;;;10483737;28;20884;-77
2022/07/27 03:23:35;;;;;;;1.60;1.50;;;21.20;30.10;;;;;;10488858;28;20263;-78
2022/07/27 03:28:38;;;;;;;1.60;1.50;;;21.10;30.90;;;;;;10484832;28;20228;-77
2022/07/27 03:33:41;;;;;;;1.63;1.53;;;21.10;30.40;;;;;;10477112;28;20216;-78
2022/07/27 03:38:46;;;;;;;1.80;1.53;;;21.00;30.70;;;;;;10484629;28;20247;-77
2022/07/27 03:43:49;;;;;;;2.47;1.50;;;21.00;31.40;;;;;;10487136;28;20688;-78
2022/07/27 03:48:53;;;;;;;1.33;1.23;;;21.00;31.10;;;;;;10484827;28;20229;-77
2022/07/27 03:53:57;;;;;;;1.57;1.30;;;21.00;31.00;;;;;;10485656;28;20224;-78
2022/07/27 03:59:00;;;;;;;1.80;1.60;;;21.10;31.70;;;;;;10477528;28;20606;-77
2022/07/27 04:04:04;;;;;;;1.93;1.80;;;21.10;31.60;;;;;;10478510;28;20216;-77
2022/07/27 04:09:08;;;;;;;1.83;1.50;;;21.20;31.70;;;;;;10485652;28;20235;-76
2022/07/27 04:14:12;;;;;;;3.10;2.00;;;21.30;32.30;;;;;;10480682;28;20224;-77
2022/07/27 04:19:15;;;;;;;5.30;4.80;;;21.30;31.70;;;;;;10482336;28;20220;-78
2022/07/27 04:24:20;;;;;;;2.70;2.50;;;21.30;31.70;;;;;;10479961;28;20230;-77
2022/07/27 04:29:23;;;;;;;2.23;2.03;;;21.40;32.60;;;;;;10479781;28;20288;-76
2022/07/27 04:34:27;;;;;;;2.57;2.13;;;21.40;31.70;;;;;;10486847;28;20274;-77
2022/07/27 04:39:33;;;;;;;2.90;1.90;;;21.40;31.80;;;;;;10477296;28;21007;-79
2022/07/27 04:44:37;;;;;;;2.87;1.97;;;21.50;33.20;;;;;;10477395;28;20329;-76
2022/07/27 04:49:40;;;;;;;1.63;1.53;;;21.50;32.80;;;;;;10483221;28;20598;-79
2022/07/27 04:54:44;;;;;;;2.63;1.80;;;21.40;31.90;;;;;;10482257;28;20783;-78
2022/07/27 04:59:48;;;;;;;2.47;2.00;;;21.40;32.60;;;;;;10483044;28;20243;-79
2022/07/27 05:04:52;;;;;;;3.93;2.30;;;21.50;32.00;;;;;;10480837;28;20217;-81
2022/07/27 05:09:57;;;;;;;1.97;1.70;;;21.40;32.10;;;;;;10482209;28;20232;-76
2022/07/27 05:15:00;;;;;;;1.60;1.50;;;21.40;32.70;;;;;;10474427;28;20714;-76
2022/07/27 05:20:04;;;;;;;2.23;1.70;;;21.40;32.10;;;;;;10469222;28;20823;-76
2022/07/27 05:25:10;;;;;;;2.00;1.90;;;21.50;32.50;;;;;;10481997;28;20261;-75
2022/07/27 05:30:14;;;;;;;2.23;2.07;;;21.50;32.80;;;;;;10478831;28;20227;-75
2022/07/27 05:35:18;;;;;;;2.50;2.00;;;21.60;32.10;;;;;;10478240;28;20228;-75
2022/07/27 05:40:22;;;;;;;2.17;2.00;;;21.60;32.20;;;;;;10481778;28;20232;-76
2022/07/27 05:45:26;;;;;;;2.10;1.63;;;21.60;32.90;;;;;;10475083;28;20236;-72
2022/07/27 05:50:29;;;;;;;2.37;1.90;;;21.60;32.40;;;;;;10465090;28;20228;-72
2022/07/27 05:55:33;;;;;;;1.77;1.67;;;21.70;32.90;;;;;;10463450;28;20581;-72
2022/07/27 06:00:37;;;;;;;3.60;1.83;;;21.80;32.80;;;;;;10464566;28;20237;-72
2022/07/27 06:05:40;;;;;;;1.87;1.77;;;21.90;32.00;;;;;;10463003;28;20709;-71
2022/07/27 06:10:44;;;;;;;3.07;1.77;;;21.90;31.80;;;;;;10459153;28;20212;-70
2022/07/27 06:15:48;;;;;;;1.90;1.80;;;22.00;32.10;;;;;;10462252;28;20239;-70
2022/07/27 06:20:51;;;;;;;2.87;1.70;;;22.00;31.60;;;;;;10459401;28;20233;-70
2022/07/27 06:25:56;;;;;;;1.90;1.80;;;22.10;31.60;;;;;;10462875;28;20241;-70
2022/07/27 06:30:59;;;;;;;2.83;2.10;;;22.10;31.60;;;;;;10460713;28;20251;-70
2022/07/27 06:36:04;;;;;;;2.70;1.70;;;22.30;31.70;;;;;;10457160;28;20311;-70
2022/07/27 06:41:09;;;;;;;1.60;1.50;;;22.40;31.80;;;;;;10458002;28;20282;-71
2022/07/27 06:46:13;;;;;;;2.30;2.10;;;22.50;31.40;;;;;;10457896;28;20232;-71
2022/07/27 06:51:16;;;;;;;3.00;2.00;;;22.60;31.30;;;;;;10461990;28;20233;-70
2022/07/27 06:56:22;;;;;;;3.90;2.17;;;22.70;31.00;;;;;;10456351;28;20239;-71
2022/07/27 07:01:25;;;;;;;2.23;2.03;;;22.80;31.00;;;;;;10455580;28;20590;-70
2022/07/27 07:06:28;;;;;;;2.40;2.20;;;22.90;30.90;;;;;;10453202;28;20233;-72
2022/07/27 07:11:33;;;;;;;4.30;2.30;;;23.00;30.90;;;;;;10457228;28;20228;-72
2022/07/27 07:16:36;;;;;;;2.50;1.90;;;23.10;30.90;;;;;;10452379;28;20598;-72
2022/07/27 07:21:40;;;;;;;1.83;1.73;;;23.30;31.00;;;;;;10456900;28;20231;-72
2022/07/27 07:26:45;;;;;;;2.00;1.87;;;23.30;31.10;;;;;;10454519;28;20232;-73
2022/07/27 07:31:48;;;;;;;3.57;2.27;;;23.50;31.30;;;;;;10443040;28;20252;-72
2022/07/27 07:36:51;;;;;;;2.33;2.10;;;23.60;31.20;;;;;;10446745;28;20228;-72
2022/07/27 07:41:56;;;;;;;2.87;2.07;;;23.70;31.10;;;;;;10450392;28;20221;-76
2022/07/27 07:46:59;;;;;;;3.77;2.10;;;23.90;31.20;;;;;;10463776;28;20226;-76
2022/07/27 07:52:03;;;;;;;2.60;2.20;;;24.00;31.20;;;;;;10469352;28;20221;-75
2022/07/27 07:57:07;;;;;;;1.97;1.83;;;24.20;31.00;;;;;;10463910;28;20732;-75
2022/07/27 08:02:11;;;;;;;2.40;2.20;;;24.40;30.90;;;;;;10459300;28;20228;-75
2022/07/27 08:07:14;;;;;;;2.63;2.20;;;24.60;30.70;;;;;;10456948;28;20304;-75
2022/07/27 08:12:19;;;;;;;3.67;2.10;;;24.70;30.30;;;;;;10455529;28;20659;-75
2022/07/27 08:17:22;;;;;;;2.50;2.20;;;24.90;30.10;;;;;;10455557;28;20240;-75
2022/07/27 08:22:25;;;;;;;4.27;2.00;;;25.00;30.10;;;;;;10458236;28;20230;-73
2022/07/27 08:27:30;;;;;;;2.30;2.10;;;25.20;30.00;;;;;;10452458;28;20232;-76
2022/07/27 08:32:51;;;;;;;2.10;2.00;;;25.40;29.80;;;;;;10457890;28;20651;-75
2022/07/27 08:37:55;;;;;;;2.37;2.20;;;25.60;29.00;;;;;;10456900;28;20221;-75
2022/07/27 08:43:01;;;;;;;2.03;1.83;;;25.80;29.10;;;;;;10463055;28;20229;-76
2022/07/27 08:48:07;;;;;;;2.10;1.90;;;26.00;29.20;;;;;;10461878;28;20227;-75
2022/07/27 08:53:13;;;;;;;1.80;1.70;;;26.20;29.30;;;;;;10460045;28;20231;-76
2022/07/27 08:58:17;;;;;;;1.90;1.80;;;26.50;29.20;;;;;;10467192;28;20231;-76
2022/07/27 09:03:22;;;;;;;2.20;2.00;;;26.70;28.60;;;;;;10473334;28;20224;-76
2022/07/27 09:08:27;;;;;;;2.10;1.97;;;26.90;28.50;;;;;;10467646;28;20318;-72
2022/07/27 09:13:34;;;;;;;1.90;1.80;;;27.10;28.30;;;;;;10464110;28;20700;-72
2022/07/27 09:18:39;;;;;;;1.70;1.60;;;27.40;28.10;;;;;;10460977;28;20229;-73
2022/07/27 09:23:44;;;;;;;1.70;1.60;;;27.60;27.70;;;;;;10462645;28;20228;-73
2022/07/27 09:28:53;;;;;;;1.93;1.73;;;27.80;26.50;;;;;;10462479;28;20604;-72
2022/07/27 09:33:58;;;;;;;1.90;1.80;;;27.90;25.10;;;;;;10461590;28;20221;-72
2022/07/27 09:39:05;;;;;;;2.33;1.80;;;27.90;26.00;;;;;;10460257;28;20224;-73
2022/07/27 09:44:10;;;;;;;2.60;1.53;;;27.90;26.00;;;;;;10461689;28;20220;-73
2022/07/27 09:49:34;;;;;;;1.73;1.63;;;27.90;25.60;;;;;;10460042;28;20224;-73
2022/07/27 09:54:43;;;;;;;1.90;1.80;;;28.00;25.70;;;;;;10463833;28;20224;-73
2022/07/27 09:59:47;;;;;;;1.80;1.70;;;28.20;24.50;;;;;;10464985;28;21040;-73
2022/07/27 10:04:51;;;;;;;2.10;2.00;;;28.20;24.50;;;;;;10463977;28;20733;-73
2022/07/27 10:09:54;;;;;;;2.83;2.10;;;28.30;25.30;;;;;;10467812;28;20232;-77
2022/07/27 10:15:00;;;;;;;2.37;2.17;;;28.50;25.50;;;;;;10468651;28;20224;-76
2022/07/27 10:20:07;;;;;;;19.70;3.20;;;28.70;24.90;;;;;;10469054;28;20225;-73
2022/07/27 10:25:10;;;;;;;2.47;1.77;;;28.90;24.50;;;;;;10461907;28;20217;-73
2022/07/27 10:30:17;;;;;;;2.57;1.70;;;29.10;24.80;;;;;;10462828;28;20232;-73
2022/07/27 10:35:33;;;;;;;2.30;1.80;;;29.30;23.70;;;;;;10460517;28;20253;-72
2022/07/27 10:40:37;;;;;;;2.03;1.70;;;29.40;22.90;;;;;;10466072;28;20596;-72
2022/07/27 10:45:44;;;;;;;1.50;1.40;;;29.50;23.30;;;;;;10467761;28;20220;-76
2022/07/27 10:51:04;;;;;;;1.70;1.60;;;29.60;21.80;;;;;;10470015;28;20247;-75
2022/07/27 10:56:09;;;;;;;3.47;1.57;;;29.60;22.90;;;;;;10466216;28;20596;-76
2022/07/27 11:01:14;;;;;;;2.87;1.50;;;29.60;22.50;;;;;;10471143;28;20220;-76
2022/07/27 11:06:35;;;;;;;6.87;2.27;;;29.70;22.10;;;;;;10472920;28;20250;-77
2022/07/27 11:11:59;;;;;;;8.80;2.30;;;29.70;21.90;;;;;;10470447;28;20223;-76
2022/07/27 11:17:05;;;;;;;2.20;2.00;;;29.60;22.30;;;;;;10472996;28;20232;-76
2022/07/27 11:22:30;;;;;;;3.53;1.70;;;29.50;21.20;;;;;;10473038;28;20220;-77
2022/07/27 11:27:53;;;;;;;2.30;1.90;;;29.40;21.80;;;;;;10474897;28;20239;-77
2022/07/27 11:33:03;;;;;;;1.70;1.60;;;29.40;21.80;;;;;;10467632;28;21061;-77
2022/07/27 11:38:07;;;;;;;3.47;1.60;;;29.40;20.80;;;;;;10471011;28;20220;-76
2022/07/27 11:43:10;;;;;;;2.33;1.50;;;29.40;21.60;;;;;;10466154;28;20728;-77
2022/07/27 11:48:19;;;;;;;1.60;1.50;;;29.40;21.60;;;;;;10472223;28;20316;-77
2022/07/27 11:53:22;;;;;;;1.50;1.40;;;29.40;20.80;;;;;;10472960;28;20248;-77
2022/07/27 11:58:25;;;;;;;1.60;1.50;;;29.50;21.00;;;;;;10472401;28;20871;-77
2022/07/27 12:03:30;;;;;;;1.60;1.50;;;29.50;21.10;;;;;;10471996;28;20220;-77
2022/07/27 12:08:49;;;;;;;2.70;1.40;;;29.60;20.60;;;;;;10470449;28;20224;-77
2022/07/27 12:13:58;;;;;;;1.60;1.33;;;29.70;20.90;;;;;;10468102;28;20588;-73
2022/07/27 12:19:02;;;;;;;1.80;1.60;;;29.90;19.70;;;;;;10432620;28;20235;-73
2022/07/27 12:24:07;;;;;;;1.87;1.77;;;30.00;20.00;;;;;;10444901;28;20216;-74
2022/07/27 12:29:12;;;;;;;1.50;1.40;;;30.00;19.60;;;;;;10442827;28;20232;-73
2022/07/27 12:34:17;;;;;;;1.93;1.60;;;29.90;19.80;;;;;;10438747;28;20220;-73
2022/07/27 12:39:31;;;;;;;3.27;1.50;;;29.90;19.60;;;;;;10449411;28;20229;-73
2022/07/27 12:44:36;;;;;;;1.60;1.50;;;30.00;18.50;;;;;;10445082;28;20235;-73
2022/07/27 12:49:40;;;;;;;1.63;1.53;;;30.10;19.70;;;;;;10447788;28;20240;-73
2022/07/27 12:54:48;;;;;;;1.70;1.60;;;30.20;19.10;;;;;;10444215;28;20236;-73
2022/07/27 12:59:51;;;;;;;2.30;1.67;;;30.20;19.10;;;;;;10448625;28;20241;-74
2022/07/27 13:04:56;;;;;;;1.73;1.63;;;30.20;19.30;;;;;;10446638;28;20220;-73
2022/07/27 13:09:59;;;;;;;1.83;1.73;;;30.20;19.00;;;;;;10446545;28;20609;-72
2022/07/27 13:15:07;;;;;;;1.60;1.50;;;30.20;19.10;;;;;;10446974;28;20274;-72
2022/07/27 13:20:14;;;;;;;1.80;1.70;;;30.20;19.20;;;;;;10446223;28;20232;-72
2022/07/27 13:25:17;;;;;;;1.87;1.60;;;30.30;19.10;;;;;;10448886;28;20233;-72
2022/07/27 13:30:20;;;;;;;1.60;1.50;;;30.30;19.00;;;;;;10445983;28;20224;-72
2022/07/27 13:35:25;;;;;;;2.10;1.60;;;30.40;19.20;;;;;;10462528;28;20231;-74
2022/07/27 13:40:28;;;;;;;2.53;1.60;;;30.40;18.10;;;;;;10462335;28;20231;-75
2022/07/27 13:45:32;;;;;;;1.60;1.50;;;30.40;18.50;;;;;;10461871;28;20217;-71
2022/07/27 13:50:46;;;;;;;1.80;1.70;;;30.40;17.90;;;;;;10456084;28;20228;-72
2022/07/27 13:55:50;;;;;;;1.80;1.70;;;30.30;17.50;;;;;;10460593;28;20228;-71
2022/07/27 14:00:53;;;;;;;1.80;1.70;;;30.30;18.20;;;;;;10459494;28;20220;-72
2022/07/27 14:05:58;;;;;;;1.90;1.80;;;30.20;18.00;;;;;;10456521;28;20229;-72
2022/07/27 14:11:01;;;;;;;1.93;1.70;;;30.10;17.50;;;;;;10456985;28;20224;-72
2022/07/27 14:16:06;;;;;;;1.80;1.70;;;30.00;17.70;;;;;;10457922;28;20216;-72
2022/07/27 14:21:11;;;;;;;1.77;1.60;;;30.00;17.70;;;;;;10459795;28;20228;-72
2022/07/27 14:26:15;;;;;;;3.83;1.80;;;30.00;17.50;;;;;;10459006;28;20756;-72
2022/07/27 14:31:19;;;;;;;1.87;1.77;;;30.00;17.70;;;;;;10459197;28;20251;-73
2022/07/27 14:36:24;;;;;;;2.00;1.90;;;29.90;17.60;;;;;;10459182;28;20916;-72
2022/07/27 14:41:27;;;;;;;2.27;2.17;;;29.80;17.30;;;;;;10458733;28;20232;-72
2022/07/27 14:46:30;;;;;;;2.10;1.90;;;29.80;17.80;;;;;;10458615;28;20236;-72
2022/07/27 14:51:35;;;;;;;1.90;1.80;;;29.70;17.90;;;;;;10453421;28;20375;-72
2022/07/27 14:56:39;;;;;;;1.90;1.80;;;29.70;17.80;;;;;;10457186;28;20303;-72
2022/07/27 15:01:42;;;;;;;3.80;2.13;;;29.70;18.10;;;;;;10459143;28;20229;-77
2022/07/27 15:06:47;;;;;;;2.83;2.13;;;29.70;18.00;;;;;;10456955;28;20259;-76
2022/07/27 15:11:50;;;;;;;2.00;1.90;;;29.60;18.10;;;;;;10458477;28;20243;-76
2022/07/27 15:16:53;;;;;;;2.53;1.90;;;29.70;18.90;;;;;;10453654;28;20235;-73
2022/07/27 15:21:58;;;;;;;2.53;1.90;;;29.70;18.20;;;;;;10452068;28;20224;-73
2022/07/27 15:27:02;;;;;;;2.23;2.00;;;29.60;18.00;;;;;;10456642;28;20230;-73
2022/07/27 15:32:06;;;;;;;2.30;1.87;;;29.70;18.40;;;;;;10449016;28;20217;-73
2022/07/27 15:37:10;;;;;;;2.13;1.93;;;29.60;18.40;;;;;;10449857;28;20232;-73
2022/07/27 15:42:13;;;;;;;1.97;1.73;;;29.70;18.50;;;;;;10448347;28;20227;-73
2022/07/27 15:47:16;;;;;;;1.87;1.77;;;29.70;18.60;;;;;;10449437;28;20228;-73
2022/07/27 15:52:21;;;;;;;3.20;1.80;;;29.70;18.50;;;;;;10451619;28;21221;-73
2022/07/27 15:57:24;;;;;;;1.90;1.80;;;29.70;18.30;;;;;;10441980;28;20235;-73
2022/07/27 16:02:27;;;;;;;2.00;1.90;;;29.80;18.20;;;;;;10448091;28;20279;-73
2022/07/27 16:07:32;;;;;;;2.00;1.90;;;29.80;18.40;;;;;;10450405;28;20239;-77
2022/07/27 16:12:43;;;;;;;1.83;1.70;;;29.80;18.20;;;;;;10466035;28;20264;-76
2022/07/27 16:17:47;;;;;;;2.70;2.00;;;29.80;18.20;;;;;;10465791;28;20250;-76
2022/07/27 16:22:51;;;;;;;3.17;1.90;;;29.80;18.40;;;;;;10464866;28;20235;-76
2022/07/27 16:27:55;;;;;;;2.13;1.93;;;29.80;18.40;;;;;;10460787;28;20228;-76
2022/07/27 16:32:58;;;;;;;6.20;2.10;;;29.80;18.50;;;;;;10456707;28;20231;-76
2022/07/27 16:38:02;;;;;;;2.60;1.77;;;29.80;18.40;;;;;;10448460;28;20809;-73
2022/07/27 16:43:06;;;;;;;2.00;1.90;;;29.70;17.80;;;;;;10447497;28;20251;-74
2022/07/27 16:48:11;;;;;;;2.97;1.77;;;29.70;18.10;;;;;;10451660;28;20216;-74
2022/07/27 16:53:16;;;;;;;2.00;1.90;;;29.60;18.20;;;;;;10452455;28;20228;-76
2022/07/27 16:58:19;;;;;;;1.70;1.60;;;29.50;18.10;;;;;;10463170;28;20573;-76
2022/07/27 17:03:23;;;;;;;3.27;1.80;;;29.50;18.50;;;;;;10450773;28;20239;-76
2022/07/27 17:08:27;;;;;;;1.70;1.60;;;29.50;18.30;;;;;;10450549;28;20228;-76
2022/07/27 17:13:30;;;;;;;2.37;2.17;;;29.50;18.20;;;;;;10453705;28;20232;-76
2022/07/27 17:18:37;;;;;;;2.10;2.00;;;29.50;18.50;;;;;;10457965;28;20614;-77
2022/07/27 17:23:44;;;;;;;2.93;2.10;;;29.50;18.60;;;;;;10465691;28;20502;-76
2022/07/27 17:28:47;;;;;;;3.03;2.23;;;29.50;18.70;;;;;;10461823;28;20278;-76
2022/07/27 17:33:51;;;;;;;2.30;2.10;;;29.30;18.70;;;;;;10454559;28;20606;-76
2022/07/27 17:38:56;;;;;;;2.33;2.17;;;29.20;18.80;;;;;;10458495;28;20224;-73
2022/07/27 17:43:59;;;;;;;2.33;2.13;;;29.10;18.90;;;;;;10451346;28;20472;-73
2022/07/27 17:49:03;;;;;;;2.67;2.33;;;29.00;19.10;;;;;;10450905;28;20217;-73
2022/07/27 17:54:07;;;;;;;2.33;1.83;;;28.90;19.10;;;;;;10443007;28;20247;-74
2022/07/27 17:59:11;;;;;;;1.93;1.83;;;28.70;19.30;;;;;;10446151;28;20727;-73
2022/07/27 18:04:34;;;;;;;2.10;2.00;;;28.60;19.20;;;;;;10445422;28;20216;-73
2022/07/27 18:09:42;;;;;;;2.90;2.20;;;28.50;19.30;;;;;;10455273;28;20236;-73
2022/07/27 18:20:03;;;;;;;2.00;1.90;;;28.40;19.60;;;;;;10456758;28;20722;-73
2022/07/27 18:25:09;;;;;;;1.90;1.80;;;28.30;19.80;;;;;;10450631;28;20660;-73
2022/07/27 18:30:12;;;;;;;2.23;1.80;;;28.20;20.20;;;;;;10456436;28;20917;-73
2022/07/27 18:35:15;;;;;;;3.83;2.00;;;28.20;20.20;;;;;;10454776;28;20243;-73
2022/07/27 18:40:20;;;;;;;2.33;1.90;;;28.10;20.10;;;;;;10442831;28;20231;-73
2022/07/27 18:45:24;;;;;;;1.87;1.73;;;28.10;20.10;;;;;;10443395;28;20228;-73
2022/07/27 18:50:37;;;;;;;3.40;1.70;;;28.00;20.10;;;;;;10443094;28;20326;-73
2022/07/27 18:55:43;;;;;;;2.43;2.10;;;27.90;20.00;;;;;;10446480;28;20318;-73
2022/07/27 19:00:46;;;;;;;2.27;2.07;;;27.80;20.40;;;;;;10448351;28;20228;-73
2022/07/27 19:05:50;;;;;;;2.27;2.07;;;27.70;20.60;;;;;;10442088;28;20232;-73
2022/07/27 19:10:56;;;;;;;2.90;2.30;;;27.60;20.80;;;;;;10444942;28;21081;-73
2022/07/27 19:16:00;;;;;;;2.17;1.97;;;27.50;21.20;;;;;;10444030;28;20241;-73
2022/07/27 19:21:03;;;;;;;2.70;2.30;;;27.40;21.20;;;;;;10444018;28;20224;-73
2022/07/27 19:26:09;;;;;;;2.23;2.03;;;27.30;21.40;;;;;;10448173;28;20307;-73
2022/07/27 19:31:12;;;;;;;2.20;2.10;;;27.20;21.90;;;;;;10443717;28;20718;-73
2022/07/27 19:36:25;;;;;;;4.83;2.40;;;27.20;21.70;;;;;;10441375;28;20685;-73
2022/07/27 19:41:29;;;;;;;2.53;2.33;;;27.00;21.80;;;;;;10451487;28;20233;-73
2022/07/27 19:46:33;;;;;;;2.33;2.13;;;26.90;22.30;;;;;;10448101;28;20224;-73
2022/07/27 19:51:36;;;;;;;2.13;2.03;;;26.90;22.30;;;;;;10452808;28;20236;-73
2022/07/27 19:56:41;;;;;;;2.63;2.30;;;26.80;22.50;;;;;;10452180;28;20660;-73
2022/07/27 20:01:44;;;;;;;3.53;2.13;;;26.70;22.70;;;;;;10445235;28;20235;-73
2022/07/27 20:06:48;;;;;;;2.23;2.13;;;26.60;22.70;;;;;;10441570;28;21076;-73
2022/07/27 20:11:52;;;;;;;2.27;2.17;;;26.50;22.70;;;;;;10444609;28;20232;-73
2022/07/27 20:17:02;;;;;;;2.50;2.30;;;26.40;23.10;;;;;;10443801;28;21004;-73
2022/07/27 20:22:05;;;;;;;2.57;2.30;;;26.40;23.00;;;;;;10440974;28;20228;-76
2022/07/27 20:27:10;;;;;;;2.23;2.10;;;26.30;23.10;;;;;;10445167;28;20229;-78
2022/07/27 20:32:14;;;;;;;2.17;2.07;;;26.20;23.40;;;;;;10448601;28;20650;-76
2022/07/27 20:37:17;;;;;;;2.17;2.03;;;26.10;23.40;;;;;;10459690;28;20224;-76
2022/07/27 20:42:22;;;;;;;2.30;2.20;;;26.00;23.40;;;;;;10460323;28;20213;-76
2022/07/27 20:47:25;;;;;;;2.47;2.23;;;25.90;23.80;;;;;;10461394;28;20743;-76
2022/07/27 20:52:36;;;;;;;3.80;2.23;;;25.80;23.70;;;;;;10460924;28;20798;-76
2022/07/27 20:57:41;;;;;;;2.80;2.37;;;25.70;23.80;;;;;;10467220;28;20629;-76
2022/07/27 21:02:44;;;;;;;2.30;2.17;;;25.60;24.10;;;;;;10468567;28;20692;-77
2022/07/27 21:07:47;;;;;;;2.47;2.27;;;25.50;23.90;;;;;;10466332;28;20232;-76
2022/07/27 21:12:52;;;;;;;2.30;2.10;;;25.40;24.20;;;;;;10466125;28;20229;-76
2022/07/27 21:17:55;;;;;;;2.50;2.30;;;25.30;24.40;;;;;;10471786;28;20228;-76
2022/07/27 21:28:21;;;;;;;2.50;2.03;;;25.20;24.40;;;;;;10457678;28;20227;-76
2022/07/27 21:33:27;;;;;;;2.60;2.40;;;25.10;24.70;;;;;;10461655;28;20238;-77
2022/07/27 21:38:30;;;;;;;2.00;1.90;;;25.00;24.70;;;;;;10465225;28;20239;-76
2022/07/27 21:43:36;;;;;;;2.40;2.20;;;25.00;24.80;;;;;;10466961;28;20239;-77
2022/07/27 21:48:39;;;;;;;2.17;2.00;;;24.90;25.40;;;;;;10467744;28;20232;-76
2022/07/27 21:53:43;;;;;;;2.33;2.17;;;24.80;25.10;;;;;;10459414;28;20236;-76
2022/07/27 21:58:47;;;;;;;2.43;2.33;;;24.70;25.10;;;;;;10457690;28;20225;-77
2022/07/27 22:03:51;;;;;;;2.80;2.60;;;24.70;25.60;;;;;;10459762;28;20220;-76
2022/07/27 22:08:54;;;;;;;2.93;2.37;;;24.60;25.30;;;;;;10459593;28;20305;-77
2022/07/27 22:13:59;;;;;;;2.80;2.60;;;24.50;25.20;;;;;;10460892;28;20319;-75
2022/07/27 22:19:02;;;;;;;2.70;2.50;;;24.40;25.70;;;;;;10464426;28;20231;-76
2022/07/27 22:24:06;;;;;;;2.70;2.50;;;24.30;25.50;;;;;;10460779;28;20286;-77
2022/07/27 22:29:11;;;;;;;2.73;2.10;;;24.20;25.70;;;;;;10463714;28;20621;-75
2022/07/27 22:34:14;;;;;;;2.37;2.27;;;24.20;25.80;;;;;;10458328;28;20230;-77
2022/07/27 22:39:18;;;;;;;2.73;2.07;;;24.10;25.60;;;;;;10460061;28;20220;-76
2022/07/27 22:44:23;;;;;;;2.13;2.03;;;24.00;25.70;;;;;;10457402;28;20709;-76
2022/07/27 22:49:26;;;;;;;2.40;2.30;;;24.00;26.10;;;;;;10460213;28;20233;-77
2022/07/27 22:54:32;;;;;;;2.20;2.10;;;23.90;26.00;;;;;;10460688;28;20237;-76
2022/07/27 22:59:37;;;;;;;2.63;2.53;;;23.90;26.50;;;;;;10462417;28;20235;-76
2022/07/27 23:04:40;;;;;;;2.27;2.10;;;23.80;26.50;;;;;;10470168;28;20226;-76
2022/07/27 23:09:44;;;;;;;2.30;2.20;;;23.70;26.20;;;;;;10470675;28;20311;-76
2022/07/27 23:14:49;;;;;;;3.93;2.73;;;23.50;26.20;;;;;;10465147;28;20224;-76
2022/07/27 23:19:52;;;;;;;2.67;2.50;;;23.40;26.90;;;;;;10469881;28;20263;-77
2022/07/27 23:24:55;;;;;;;2.67;2.47;;;23.30;26.80;;;;;;10465333;28;20809;-76
2022/07/27 23:30:00;;;;;;;2.73;2.53;;;23.20;26.70;;;;;;10462868;28;20234;-76
2022/07/27 23:35:03;;;;;;;5.33;2.70;;;23.10;27.40;;;;;;10462772;28;20238;-75
2022/07/27 23:40:08;;;;;;;2.50;2.30;;;23.00;27.30;;;;;;10465686;28;20224;-76
2022/07/27 23:45:13;;;;;;;2.80;2.60;;;22.90;27.90;;;;;;10466201;28;20768;-76
2022/07/27 23:50:16;;;;;;;2.87;2.67;;;22.80;27.20;;;;;;10469541;28;20585;-76
2022/07/27 23:55:20;;;;;;;2.50;2.30;;;22.80;27.20;;;;;;10466788;28;20212;-76
